Time;durP1;ratioP1;P1;durP2;ratioP2;P2;SDS_P1;SDS_P2;PMS_P1;PMS_P2;Temp;Humidity;BMP_temperature;BMP_pressure;BME280_temperature;BME280_humidity;BME280_pressure;Samples;Min_cycle;Max_cycle;Signal;HPM_P1;HPM_P2
2022/08/20 00:00:13;;;;;;;;;;;;;;;22.84;62.97;101226.84;1033754;28;673;-71
2022/08/20 00:01:04;;;;;;;;;;;;;;;22.84;63.29;101218.69;1034823;28;692;-71
2022/08/20 00:01:55;;;;;;;;;;;;;;;22.83;62.98;101215.13;1033775;28;630;-71
2022/08/20 00:02:45;;;;;;;;;;;;;;;22.83;63.36;101217.00;1034646;28;641;-71
2022/08/20 00:03:35;;;;;;;;;;;;;;;22.84;63.10;101215.97;1033102;28;618;-71
2022/08/20 00:04:26;;;;;;;;;;;;;;;22.83;63.24;101217.84;1033621;28;673;-71
2022/08/20 00:05:17;;;;;;;;;;;;;;;22.82;63.33;101210.72;1034815;28;613;-71
2022/08/20 00:06:07;;;;;;;;;;;;;;;22.82;63.13;101215.28;1032260;28;721;-71
2022/08/20 00:06:58;;;;;;;;;;;;;;;22.82;63.30;101210.72;1033351;28;685;-71
2022/08/20 00:07:49;;;;;;;;;;;;;;;22.82;62.97;101207.16;1034250;28;630;-71
2022/08/20 00:08:39;;;;;;;;;;;;;;;22.83;63.01;101209.69;1033585;28;611;-71
2022/08/20 00:09:29;;;;;;;;;;;;;;;22.82;62.98;101212.56;1033636;28;635;-71
2022/08/20 00:10:21;;;;;;;;;;;;;;;22.81;63.09;101217.16;1033650;28;712;-71
2022/08/20 00:11:12;;;;;;;;;;;;;;;22.82;63.46;101221.59;1034846;28;692;-71
2022/08/20 00:12:03;;;;;;;;;;;;;;;22.79;63.20;101219.19;1033596;28;614;-71
2022/08/20 00:12:53;;;;;;;;;;;;;;;22.81;62.98;101221.75;1040464;28;619;-71
2022/08/20 00:13:44;;;;;;;;;;;;;;;22.81;63.33;101216.31;1041836;28;648;-71
2022/08/20 00:14:34;;;;;;;;;;;;;;;22.79;63.02;101218.34;1041720;28;618;-71
2022/08/20 00:15:25;;;;;;;;;;;;;;;22.78;63.46;101213.94;1041706;28;665;-71
2022/08/20 00:16:15;;;;;;;;;;;;;;;22.78;63.00;101211.22;1041238;28;653;-71
2022/08/20 00:17:05;;;;;;;;;;;;;;;22.79;63.02;101215.63;1041672;28;539;-71
2022/08/20 00:17:56;;;;;;;;;;;;;;;22.79;63.34;101216.47;1041770;28;643;-71
2022/08/20 00:18:46;;;;;;;;;;;;;;;22.79;63.39;101223.78;1039622;28;709;-71
2022/08/20 00:19:37;;;;;;;;;;;;;;;22.79;63.21;101226.50;1037417;28;633;-70
2022/08/20 00:20:28;;;;;;;;;;;;;;;22.79;63.37;101226.50;1036489;28;665;-71
2022/08/20 00:21:18;;;;;;;;;;;;;;;22.79;63.24;101229.22;1040604;28;675;-71
2022/08/20 00:22:09;;;;;;;;;;;;;;;22.78;63.23;101227.50;1041798;28;602;-71
2022/08/20 00:23:00;;;;;;;;;;;;;;;22.78;63.43;101228.38;1041723;28;661;-71
2022/08/20 00:23:51;;;;;;;;;;;;;;;22.79;63.02;101223.78;1040574;28;673;-71
2022/08/20 00:24:41;;;;;;;;;;;;;;;22.80;63.32;101228.19;1039635;28;603;-71
2022/08/20 00:25:31;;;;;;;;;;;;;;;22.80;63.43;101239.06;1041685;28;622;-71
2022/08/20 00:26:22;;;;;;;;;;;;;;;22.81;63.13;101235.34;1041800;28;689;-71
2022/08/20 00:27:12;;;;;;;;;;;;;;;22.80;63.19;101231.78;1041754;28;633;-71
2022/08/20 00:28:03;;;;;;;;;;;;;;;22.79;63.40;101229.22;1041531;28;970;-71
2022/08/20 00:28:53;;;;;;;;;;;;;;;22.78;63.10;101233.81;1041713;28;704;-71
2022/08/20 00:29:43;;;;;;;;;;;;;;;22.78;63.25;101222.09;1041702;28;696;-71
2022/08/20 00:30:34;;;;;;;;;;;;;;;22.78;63.52;101228.38;1041344;28;688;-71
2022/08/20 00:31:24;;;;;;;;;;;;;;;22.78;63.47;101233.81;1041667;28;1910;-71
2022/08/20 00:32:15;;;;;;;;;;;;;;;22.78;63.33;101227.50;1041648;28;614;-71
2022/08/20 00:33:05;;;;;;;;;;;;;;;22.77;63.20;101226.66;1041707;28;772;-71
2022/08/20 00:33:56;;;;;;;;;;;;;;;22.76;63.25;101229.53;1041603;28;625;-71
2022/08/20 00:34:46;;;;;;;;;;;;;;;22.78;63.60;101227.50;1041697;28;626;-71
2022/08/20 00:35:36;;;;;;;;;;;;;;;22.78;63.42;101227.50;1041770;28;622;-71
2022/08/20 00:36:27;;;;;;;;;;;;;;;22.76;63.02;101221.38;1041763;28;701;-71
2022/08/20 00:37:17;;;;;;;;;;;;;;;22.76;62.97;101224.09;1039252;28;618;-71
2022/08/20 00:38:08;;;;;;;;;;;;;;;22.76;63.03;101221.38;1041677;28;633;-71
2022/08/20 00:38:58;;;;;;;;;;;;;;;22.76;63.14;101229.53;1041675;28;606;-71
2022/08/20 00:39:48;;;;;;;;;;;;;;;22.77;63.54;101229.38;1041782;28;701;-71
2022/08/20 00:40:39;;;;;;;;;;;;;;;22.76;63.24;101229.53;1041760;28;650;-71
2022/08/20 00:41:29;;;;;;;;;;;;;;;22.76;63.55;101226.81;1041751;28;610;-71
2022/08/20 00:42:20;;;;;;;;;;;;;;;22.76;63.42;101224.09;1041599;28;681;-71
2022/08/20 00:43:10;;;;;;;;;;;;;;;22.77;63.19;101236.69;1041647;28;704;-71
2022/08/20 00:44:01;;;;;;;;;;;;;;;22.76;63.61;101227.66;1041566;28;610;-71
2022/08/20 00:44:51;;;;;;;;;;;;;;;22.74;63.56;101232.44;1041231;28;617;-71
2022/08/20 00:45:42;;;;;;;;;;;;;;;22.75;63.55;101225.13;1041795;28;654;-71
2022/08/20 00:46:35;;;;;;;;;;;;;;;22.73;63.13;101233.44;1039491;28;661;-71
2022/08/20 00:47:26;;;;;;;;;;;;;;;22.73;63.26;101235.31;1041723;28;594;-72
2022/08/20 00:48:17;;;;;;;;;;;;;;;22.73;63.52;101233.44;1040425;28;567;-71
2022/08/20 00:49:07;;;;;;;;;;;;;;;22.73;63.17;101238.03;1039229;28;615;-71
2022/08/20 00:49:58;;;;;;;;;;;;;;;22.73;63.46;101235.31;1041701;28;606;-71
2022/08/20 00:50:48;;;;;;;;;;;;;;;22.70;63.13;101231.06;1041705;28;618;-71
2022/08/20 00:51:39;;;;;;;;;;;;;;;22.73;63.37;101241.59;1041655;28;1945;-71
2022/08/20 00:52:30;;;;;;;;;;;;;;;22.73;63.23;101227.16;1040416;28;670;-71
2022/08/20 00:53:21;;;;;;;;;;;;;;;22.75;62.83;101230.56;1041570;28;690;-71
2022/08/20 00:54:11;;;;;;;;;;;;;;;22.75;63.06;101233.28;1040503;28;610;-71
2022/08/20 00:55:02;;;;;;;;;;;;;;;22.74;63.34;101232.44;1041617;28;634;-71
2022/08/20 00:55:52;;;;;;;;;;;;;;;22.74;63.41;101234.31;1041562;28;697;-71
2022/08/20 00:56:43;;;;;;;;;;;;;;;22.73;63.18;101238.88;1041581;28;700;-71
2022/08/20 00:57:34;;;;;;;;;;;;;;;22.72;63.75;101234.47;1040469;28;646;-71
2022/08/20 00:58:24;;;;;;;;;;;;;;;22.73;63.67;101240.75;1041594;28;638;-71
2022/08/20 00:59:15;;;;;;;;;;;;;;;22.71;63.34;101240.91;1041610;28;638;-71
2022/08/20 01:00:07;;;;;;;;;;;;;;;22.72;63.59;101244.50;1040554;28;626;-71
2022/08/20 01:00:58;;;;;;;;;;;;;;;22.70;63.69;101246.53;1039198;28;631;-71
2022/08/20 01:01:48;;;;;;;;;;;;;;;22.71;63.37;101240.06;1040617;28;670;-71
2022/08/20 01:02:39;;;;;;;;;;;;;;;22.72;63.41;101239.06;1041626;28;634;-71
2022/08/20 01:03:29;;;;;;;;;;;;;;;22.71;63.47;101237.34;1040330;28;611;-71
2022/08/20 01:04:20;;;;;;;;;;;;;;;22.72;63.43;101241.78;1039551;28;615;-71
2022/08/20 01:05:10;;;;;;;;;;;;;;;22.72;63.65;101237.19;1040689;28;636;-71
2022/08/20 01:06:01;;;;;;;;;;;;;;;22.72;63.40;101236.34;1040531;28;618;-71
2022/08/20 01:06:51;;;;;;;;;;;;;;;22.71;63.33;101238.19;1041671;28;713;-71
2022/08/20 01:07:43;;;;;;;;;;;;;;;22.74;63.12;101237.03;1039156;28;661;-71
2022/08/20 01:08:34;;;;;;;;;;;;;;;22.73;63.58;101235.31;1040460;28;665;-71
2022/08/20 01:09:24;;;;;;;;;;;;;;;22.71;63.66;101238.19;1041364;28;657;-71
2022/08/20 01:10:15;;;;;;;;;;;;;;;22.71;63.37;101237.34;1041596;28;622;-71
2022/08/20 01:11:15;;;;;;;;;;;;;;;22.70;63.28;101235.66;1039108;28;674;-71
2022/08/20 01:12:06;;;;;;;;;;;;;;;22.69;63.67;101236.66;1040375;28;630;-71
2022/08/20 01:12:56;;;;;;;;;;;;;;;22.70;63.25;101235.66;1034497;28;633;-71
2022/08/20 01:13:47;;;;;;;;;;;;;;;22.68;63.64;101229.53;1032274;28;666;-71
2022/08/20 01:14:44;;;;;;;;;;;;;;;22.70;63.41;101241.94;1033331;28;658;-71
2022/08/20 01:15:35;;;;;;;;;;;;;;;22.68;63.21;101235.81;1032851;28;661;-71
2022/08/20 01:16:25;;;;;;;;;;;;;;;22.70;63.18;101236.50;1033397;28;714;-71
2022/08/20 01:17:16;;;;;;;;;;;;;;;22.68;63.53;101237.69;1033402;28;630;-71
2022/08/20 01:18:09;;;;;;;;;;;;;;;22.66;63.36;101243.28;1032221;28;627;-71
2022/08/20 01:19:00;;;;;;;;;;;;;;;22.68;63.68;101234.97;1032331;28;706;-71
2022/08/20 01:19:50;;;;;;;;;;;;;;;22.67;63.50;101231.41;1033302;28;726;-71
2022/08/20 01:20:41;;;;;;;;;;;;;;;22.70;63.13;101238.38;1033383;28;594;-71
2022/08/20 01:21:33;;;;;;;;;;;;;;;22.70;63.54;101241.09;1033295;28;583;-71
2022/08/20 01:23:33;;;;;;;;;;;;;;;22.69;63.20;101239.38;1033402;28;664;-71
2022/08/20 01:24:23;;;;;;;;;;;;;;;22.70;63.13;101238.38;1032244;28;723;-71
2022/08/20 01:25:14;;;;;;;;;;;;;;;22.68;63.22;101234.97;1033392;28;643;-71
2022/08/20 01:26:04;;;;;;;;;;;;;;;22.68;63.67;101237.69;1033257;28;626;-71
2022/08/20 01:26:55;;;;;;;;;;;;;;;22.66;63.42;101237.00;1033348;28;678;-71
2022/08/20 01:27:45;;;;;;;;;;;;;;;22.68;63.68;101237.69;1033821;28;1112;-70
2022/08/20 01:28:36;;;;;;;;;;;;;;;22.67;63.60;101238.69;1032894;28;697;-70
2022/08/20 01:29:28;;;;;;;;;;;;;;;22.66;63.38;101239.72;1032292;28;677;-71
2022/08/20 01:30:18;;;;;;;;;;;;;;;22.67;63.55;101235.97;1033880;28;737;-71
2022/08/20 01:31:08;;;;;;;;;;;;;;;22.65;63.72;101236.16;1033108;28;678;-71
2022/08/20 01:32:01;;;;;;;;;;;;;;;22.66;63.18;101234.28;1033646;28;634;-71
2022/08/20 01:32:51;;;;;;;;;;;;;;;22.66;63.41;101239.72;1033369;28;634;-71
2022/08/20 01:33:42;;;;;;;;;;;;;;;22.65;63.68;101233.44;1033402;28;603;-71
2022/08/20 01:34:32;;;;;;;;;;;;;;;22.66;63.56;101231.56;1033047;28;693;-71
2022/08/20 01:35:22;;;;;;;;;;;;;;;22.64;63.48;101239.03;1028986;28;603;-71
2022/08/20 01:36:13;;;;;;;;;;;;;;;22.65;63.30;101232.59;1029070;28;701;-71
2022/08/20 01:37:03;;;;;;;;;;;;;;;22.65;63.30;101233.44;1033271;28;662;-71
2022/08/20 01:37:54;;;;;;;;;;;;;;;22.64;63.64;101233.59;1033417;28;619;-71
2022/08/20 01:38:44;;;;;;;;;;;;;;;22.62;63.53;101235.63;1032626;28;678;-71
2022/08/20 01:39:35;;;;;;;;;;;;;;;22.61;63.81;101229.34;1033724;28;701;-71
2022/08/20 01:40:25;;;;;;;;;;;;;;;22.62;63.62;101230.19;1033320;28;657;-71
2022/08/20 01:41:16;;;;;;;;;;;;;;;22.65;63.39;101238.00;1033334;28;748;-71
2022/08/20 01:42:06;;;;;;;;;;;;;;;22.62;63.54;101232.91;1033345;28;802;-72
2022/08/20 01:42:57;;;;;;;;;;;;;;;22.65;63.36;101238.00;1031849;28;681;-71
2022/08/20 01:43:48;;;;;;;;;;;;;;;22.61;63.68;101231.22;1032250;28;700;-71
2022/08/20 01:44:38;;;;;;;;;;;;;;;22.61;63.50;101236.66;1033291;28;609;-71
2022/08/20 01:45:29;;;;;;;;;;;;;;;22.61;63.20;101236.66;1033467;28;662;-71
2022/08/20 01:46:19;;;;;;;;;;;;;;;22.62;63.34;101232.91;1034081;28;621;-71
2022/08/20 01:47:10;;;;;;;;;;;;;;;22.60;63.30;101235.78;1033369;28;618;-71
2022/08/20 01:48:00;;;;;;;;;;;;;;;22.60;63.23;101237.66;1033268;28;693;-71
2022/08/20 01:48:51;;;;;;;;;;;;;;;22.59;63.77;101238.69;1033352;28;630;-71
2022/08/20 01:49:42;;;;;;;;;;;;;;;22.58;63.63;101237.81;1033411;28;642;-71
2022/08/20 01:50:33;;;;;;;;;;;;;;;22.59;63.83;101244.09;1033983;28;688;-71
2022/08/20 01:51:23;;;;;;;;;;;;;;;22.59;63.63;101242.25;1033304;28;658;-71
2022/08/20 01:52:14;;;;;;;;;;;;;;;22.60;63.74;101235.78;1033383;28;684;-71
2022/08/20 01:53:04;;;;;;;;;;;;;;;22.59;63.51;101239.53;1033290;28;634;-71
2022/08/20 01:53:55;;;;;;;;;;;;;;;22.60;63.73;101234.94;1033400;28;594;-71
2022/08/20 01:54:45;;;;;;;;;;;;;;;22.60;63.60;101240.38;1033260;28;645;-71
2022/08/20 01:55:36;;;;;;;;;;;;;;;22.60;63.34;101243.09;1033373;28;693;-71
2022/08/20 01:56:26;;;;;;;;;;;;;;;22.60;63.63;101240.38;1032185;28;639;-71
2022/08/20 01:57:17;;;;;;;;;;;;;;;22.60;63.77;101240.38;1033334;28;665;-71
2022/08/20 01:58:07;;;;;;;;;;;;;;;22.60;63.54;101243.09;1033420;28;645;-71
2022/08/20 01:58:58;;;;;;;;;;;;;;;22.59;63.57;101239.53;1033472;28;677;-71
2022/08/20 01:59:48;;;;;;;;;;;;;;;22.60;63.75;101237.66;1033381;28;665;-71
2022/08/20 02:00:38;;;;;;;;;;;;;;;22.60;63.79;101234.94;1033394;28;642;-71
2022/08/20 02:01:29;;;;;;;;;;;;;;;22.59;63.42;101244.09;1033301;28;638;-71
2022/08/20 02:02:20;;;;;;;;;;;;;;;22.58;63.49;101240.53;1032174;28;638;-71
2022/08/20 02:03:10;;;;;;;;;;;;;;;22.58;63.51;101236.97;1033391;28;645;-71
2022/08/20 02:04:01;;;;;;;;;;;;;;;22.57;63.56;101241.59;1033381;28;652;-71
2022/08/20 02:04:51;;;;;;;;;;;;;;;22.58;63.78;101240.53;1032345;28;626;-71
2022/08/20 02:05:42;;;;;;;;;;;;;;;22.58;63.35;101243.25;1033295;28;717;-71
2022/08/20 02:06:32;;;;;;;;;;;;;;;22.58;63.46;101231.53;1032982;28;665;-71
2022/08/20 02:07:23;;;;;;;;;;;;;;;22.58;63.72;101239.69;1033613;28;602;-71
2022/08/20 02:08:13;;;;;;;;;;;;;;;22.58;63.46;101242.41;1033416;28;658;-71
2022/08/20 02:09:03;;;;;;;;;;;;;;;22.58;63.65;101242.41;1033366;28;713;-71
2022/08/20 02:09:54;;;;;;;;;;;;;;;22.58;63.37;101236.97;1033333;28;667;-71
2022/08/20 02:10:45;;;;;;;;;;;;;;;22.57;63.57;101238.03;1033282;28;745;-71
2022/08/20 02:11:36;;;;;;;;;;;;;;;22.57;63.52;101240.75;1032081;28;1902;-70
2022/08/20 02:12:26;;;;;;;;;;;;;;;22.58;63.72;101237.81;1037864;28;1213;-71
2022/08/20 02:13:17;;;;;;;;;;;;;;;22.58;63.46;101236.97;1041482;28;647;-71
2022/08/20 02:14:07;;;;;;;;;;;;;;;22.57;63.70;101238.03;1039308;28;638;-71
2022/08/20 02:14:58;;;;;;;;;;;;;;;22.57;63.64;101241.59;1041525;28;653;-71
2022/08/20 02:15:49;;;;;;;;;;;;;;;22.56;63.30;101239.88;1039713;28;650;-71
2022/08/20 02:16:42;;;;;;;;;;;;;;;22.56;63.78;101241.75;1041452;28;626;-72
2022/08/20 02:17:33;;;;;;;;;;;;;;;22.57;63.34;101240.75;1041461;28;626;-71
2022/08/20 02:18:23;;;;;;;;;;;;;;;22.56;63.45;101244.47;1039561;28;721;-71
2022/08/20 02:19:14;;;;;;;;;;;;;;;22.55;63.38;101238.19;1040574;28;645;-71
2022/08/20 02:20:04;;;;;;;;;;;;;;;22.55;63.51;101242.78;1040440;28;726;-71
2022/08/20 02:20:55;;;;;;;;;;;;;;;22.55;63.43;101243.63;1041467;28;630;-71
2022/08/20 02:21:45;;;;;;;;;;;;;;;22.56;63.39;101245.31;1041447;28;728;-71
2022/08/20 02:22:35;;;;;;;;;;;;;;;22.57;63.54;101246.19;1041351;28;712;-71
2022/08/20 02:23:26;;;;;;;;;;;;;;;22.55;63.71;101242.78;1039113;28;626;-71
2022/08/20 02:24:16;;;;;;;;;;;;;;;22.54;63.74;101246.50;1041408;28;629;-71
2022/08/20 02:25:07;;;;;;;;;;;;;;;22.53;63.59;101245.66;1041566;28;673;-71
2022/08/20 02:25:58;;;;;;;;;;;;;;;22.54;63.65;101241.91;1040234;28;747;-71
2022/08/20 02:26:48;;;;;;;;;;;;;;;22.54;63.84;101241.91;1041009;28;622;-71
2022/08/20 02:27:38;;;;;;;;;;;;;;;22.52;63.73;101250.22;1040167;28;647;-71
2022/08/20 02:28:29;;;;;;;;;;;;;;;22.54;63.45;101251.94;1042215;28;700;-71
2022/08/20 02:29:19;;;;;;;;;;;;;;;22.51;63.96;101253.97;1042215;28;654;-71
2022/08/20 02:30:10;;;;;;;;;;;;;;;22.52;63.62;101261.09;1042304;28;626;-71
2022/08/20 02:31:02;;;;;;;;;;;;;;;22.50;63.49;101246.84;1042252;28;770;-71
2022/08/20 02:31:53;;;;;;;;;;;;;;;22.52;63.65;101250.22;1041092;28;1968;-71
2022/08/20 02:32:44;;;;;;;;;;;;;;;22.52;63.83;101244.81;1040035;28;642;-71
2022/08/20 02:33:35;;;;;;;;;;;;;;;22.52;63.81;101249.38;1041299;28;705;-71
2022/08/20 02:34:25;;;;;;;;;;;;;;;22.51;63.57;101247.69;1041137;28;650;-71
2022/08/20 02:35:15;;;;;;;;;;;;;;;22.52;63.86;101247.53;1042190;28;626;-71
2022/08/20 02:36:06;;;;;;;;;;;;;;;22.52;63.48;101242.09;1042183;28;634;-72
2022/08/20 02:36:56;;;;;;;;;;;;;;;22.50;63.61;101241.41;1042115;28;708;-71
2022/08/20 02:37:47;;;;;;;;;;;;;;;22.49;63.57;101245.13;1042172;28;670;-71
2022/08/20 02:38:37;;;;;;;;;;;;;;;22.51;63.88;101247.69;1042134;28;646;-71
2022/08/20 02:39:28;;;;;;;;;;;;;;;22.51;63.65;101248.53;1039814;28;642;-71
2022/08/20 02:40:18;;;;;;;;;;;;;;;22.54;63.88;101243.78;1042161;28;752;-71
2022/08/20 02:41:09;;;;;;;;;;;;;;;22.52;63.40;101241.22;1041751;28;693;-71
2022/08/20 02:42:01;;;;;;;;;;;;;;;22.50;63.42;101245.97;1041040;28;662;-71
2022/08/20 02:42:52;;;;;;;;;;;;;;;22.51;63.74;101245.81;1040855;28;580;-71
2022/08/20 02:43:42;;;;;;;;;;;;;;;22.50;63.96;101235.97;1042101;28;541;-71
2022/08/20 02:44:34;;;;;;;;;;;;;;;22.49;63.46;101238.84;1042155;28;649;-71
2022/08/20 02:45:24;;;;;;;;;;;;;;;22.48;63.54;101242.56;1040225;28;623;-71
2022/08/20 02:46:15;;;;;;;;;;;;;;;22.48;63.76;101242.56;1040530;28;776;-71
2022/08/20 02:47:05;;;;;;;;;;;;;;;22.51;63.53;101247.69;1037290;28;696;-71
2022/08/20 02:47:57;;;;;;;;;;;;;;;22.49;63.38;101245.13;1037169;28;1165;-71
2022/08/20 02:48:48;;;;;;;;;;;;;;;22.47;63.84;101249.88;1041586;28;574;-71
2022/08/20 02:49:38;;;;;;;;;;;;;;;22.47;63.56;101249.88;1042174;28;649;-71
2022/08/20 02:50:29;;;;;;;;;;;;;;;22.48;63.79;101248.00;1042039;28;681;-71
2022/08/20 02:51:19;;;;;;;;;;;;;;;22.49;63.73;101247.84;1040897;28;611;-71
2022/08/20 02:52:09;;;;;;;;;;;;;;;22.46;63.87;101250.88;1040364;28;685;-71
2022/08/20 02:53:00;;;;;;;;;;;;;;;22.44;63.71;101257.50;1041244;28;617;-71
2022/08/20 02:53:50;;;;;;;;;;;;;;;22.46;63.61;101252.75;1041101;28;704;-71
2022/08/20 02:54:41;;;;;;;;;;;;;;;22.42;63.63;101249.53;1042120;28;637;-71
2022/08/20 02:55:31;;;;;;;;;;;;;;;22.45;63.72;101249.19;1041643;28;760;-71
2022/08/20 02:56:22;;;;;;;;;;;;;;;22.47;63.88;101252.59;1041578;28;633;-71
2022/08/20 02:57:12;;;;;;;;;;;;;;;22.46;63.92;101255.47;1040068;28;721;-71
2022/08/20 02:58:02;;;;;;;;;;;;;;;22.47;63.54;101251.75;1041150;28;638;-71
2022/08/20 02:58:53;;;;;;;;;;;;;;;22.46;63.67;101253.59;1041046;28;665;-71
2022/08/20 02:59:44;;;;;;;;;;;;;;;22.43;63.99;101256.66;1041981;28;687;-71
2022/08/20 03:00:34;;;;;;;;;;;;;;;22.44;63.55;101247.50;1041545;28;594;-71
2022/08/20 03:01:26;;;;;;;;;;;;;;;22.44;63.84;101250.22;1040994;28;619;-71
2022/08/20 03:02:16;;;;;;;;;;;;;;;22.45;64.00;101249.19;1041070;28;697;-71
2022/08/20 03:03:07;;;;;;;;;;;;;;;22.44;63.49;101246.63;1042195;28;646;-71
2022/08/20 03:04:02;;;;;;;;;;;;;;;22.43;64.14;101253.09;1041969;28;681;-71
2022/08/20 03:04:52;;;;;;;;;;;;;;;22.44;63.98;101249.34;1040917;28;678;-71
2022/08/20 03:05:43;;;;;;;;;;;;;;;22.42;64.03;101246.81;1039866;28;622;-71
2022/08/20 03:06:33;;;;;;;;;;;;;;;22.44;63.75;101252.91;1041220;28;657;-71
2022/08/20 03:07:24;;;;;;;;;;;;;;;22.45;64.18;101251.91;1041045;28;622;-71
2022/08/20 03:08:14;;;;;;;;;;;;;;;22.43;63.65;101251.22;1041999;28;692;-71
2022/08/20 03:09:06;;;;;;;;;;;;;;;22.43;63.53;101251.22;1042023;28;647;-71
2022/08/20 03:09:57;;;;;;;;;;;;;;;22.42;63.77;101254.94;1039079;28;653;-71
2022/08/20 03:10:47;;;;;;;;;;;;;;;22.41;63.71;101249.69;1041998;28;637;-71
2022/08/20 03:11:38;;;;;;;;;;;;;;;22.42;64.06;101251.38;1041943;28;1901;-71
2022/08/20 03:12:28;;;;;;;;;;;;;;;22.35;64.09;101248.50;1038255;28;1216;-71
2022/08/20 03:13:19;;;;;;;;;;;;;;;22.40;64.00;101258.84;1037424;28;669;-71
2022/08/20 03:14:10;;;;;;;;;;;;;;;22.42;64.02;101252.22;1037332;28;650;-71
2022/08/20 03:15:00;;;;;;;;;;;;;;;22.43;63.67;101255.81;1037843;28;670;-71
2022/08/20 03:15:51;;;;;;;;;;;;;;;22.37;64.23;101257.34;1037402;28;744;-71
2022/08/20 03:16:42;;;;;;;;;;;;;;;22.38;63.97;101259.03;1037356;28;689;-71
2022/08/20 03:17:32;;;;;;;;;;;;;;;22.40;64.19;101250.69;1037865;28;704;-71
2022/08/20 03:18:22;;;;;;;;;;;;;;;22.40;63.77;101264.28;1037313;28;701;-71
2022/08/20 03:19:13;;;;;;;;;;;;;;;22.41;64.10;101258.69;1037368;28;606;-71
2022/08/20 03:20:03;;;;;;;;;;;;;;;22.42;64.07;101259.53;1037471;28;653;-71
2022/08/20 03:20:54;;;;;;;;;;;;;;;22.37;64.19;101254.63;1037351;28;602;-71
2022/08/20 03:21:44;;;;;;;;;;;;;;;22.38;64.07;101256.31;1037338;28;569;-71
2022/08/20 03:22:34;;;;;;;;;;;;;;;22.39;63.66;101255.28;1036997;28;662;-71
2022/08/20 03:23:25;;;;;;;;;;;;;;;22.38;63.90;101258.19;1038247;28;653;-71
2022/08/20 03:24:15;;;;;;;;;;;;;;;22.40;64.09;101259.69;1037920;28;626;-71
2022/08/20 03:25:06;;;;;;;;;;;;;;;22.40;63.68;101262.41;1037279;28;642;-71
2022/08/20 03:25:56;;;;;;;;;;;;;;;22.41;63.62;101255.13;1037259;28;725;-71
2022/08/20 03:26:47;;;;;;;;;;;;;;;22.39;63.67;101254.47;1037307;28;701;-71
2022/08/20 03:27:37;;;;;;;;;;;;;;;22.39;63.99;101246.31;1037343;28;654;-71
2022/08/20 03:28:28;;;;;;;;;;;;;;;22.38;63.66;101247.31;1037445;28;658;-71
2022/08/20 03:29:18;;;;;;;;;;;;;;;22.38;63.78;101250.03;1037319;28;588;-71
2022/08/20 03:30:08;;;;;;;;;;;;;;;22.37;64.08;101251.91;1037338;28;660;-71
2022/08/20 03:30:59;;;;;;;;;;;;;;;22.36;63.74;101252.91;1037227;28;629;-71
2022/08/20 03:31:49;;;;;;;;;;;;;;;22.34;64.27;101252.22;1037350;28;1914;-71
2022/08/20 03:32:40;;;;;;;;;;;;;;;22.34;63.76;101252.22;1037319;28;614;-71
2022/08/20 03:33:30;;;;;;;;;;;;;;;22.36;64.09;101260.22;1037432;28;637;-71
2022/08/20 03:34:21;;;;;;;;;;;;;;;22.35;64.16;101247.66;1037323;28;610;-71
2022/08/20 03:35:12;;;;;;;;;;;;;;;22.36;64.19;101261.06;1037269;28;665;-71
2022/08/20 03:36:02;;;;;;;;;;;;;;;22.35;63.47;101248.50;1038422;28;605;-71
2022/08/20 03:36:53;;;;;;;;;;;;;;;22.36;63.92;101252.91;1036928;28;633;-71
2022/08/20 03:37:43;;;;;;;;;;;;;;;22.35;64.01;101253.94;1037558;28;622;-70
2022/08/20 03:38:33;;;;;;;;;;;;;;;22.36;64.08;101250.22;1034044;28;649;-71
2022/08/20 03:39:24;;;;;;;;;;;;;;;22.36;63.87;101246.63;1034083;28;638;-71
2022/08/20 03:40:15;;;;;;;;;;;;;;;22.36;63.94;101252.91;1038274;28;641;-71
2022/08/20 03:41:05;;;;;;;;;;;;;;;22.36;63.75;101250.22;1037846;28;654;-71
2022/08/20 03:41:55;;;;;;;;;;;;;;;22.34;64.04;101251.38;1037292;28;678;-71
2022/08/20 03:42:46;;;;;;;;;;;;;;;22.34;63.73;101257.66;1037381;28;649;-71
2022/08/20 03:43:36;;;;;;;;;;;;;;;22.35;63.82;101253.09;1037364;28;704;-71
2022/08/20 03:44:27;;;;;;;;;;;;;;;22.35;63.79;101256.66;1036966;28;716;-71
2022/08/20 03:45:18;;;;;;;;;;;;;;;22.34;63.71;101256.81;1037459;28;689;-71
2022/08/20 03:46:08;;;;;;;;;;;;;;;22.31;63.92;101263.41;1037821;28;634;-71
2022/08/20 03:46:59;;;;;;;;;;;;;;;22.35;64.14;101259.38;1037315;28;696;-71
2022/08/20 03:47:50;;;;;;;;;;;;;;;22.32;63.76;101250.69;1037287;28;713;-71
2022/08/20 03:48:40;;;;;;;;;;;;;;;22.33;63.75;101260.53;1037883;28;661;-71
2022/08/20 03:49:31;;;;;;;;;;;;;;;22.32;63.80;101258.84;1036942;28;657;-71
2022/08/20 03:50:22;;;;;;;;;;;;;;;22.34;63.80;101260.38;1037556;28;687;-71
2022/08/20 03:51:12;;;;;;;;;;;;;;;22.34;63.62;101257.66;1037807;28;653;-71
2022/08/20 03:52:03;;;;;;;;;;;;;;;22.32;63.70;101265.13;1037250;28;669;-71
2022/08/20 03:52:53;;;;;;;;;;;;;;;22.31;64.04;101260.72;1037295;28;701;-71
2022/08/20 03:53:44;;;;;;;;;;;;;;;22.31;63.75;101260.72;1036443;28;673;-71
2022/08/20 03:54:34;;;;;;;;;;;;;;;22.31;64.19;101258.00;1037521;28;618;-71
2022/08/20 03:55:24;;;;;;;;;;;;;;;22.32;64.18;101267.84;1038224;28;653;-71
2022/08/20 03:56:16;;;;;;;;;;;;;;;22.29;64.05;101262.72;1037232;28;641;-71
2022/08/20 03:57:06;;;;;;;;;;;;;;;22.31;63.79;101262.56;1038397;28;681;-71
2022/08/20 03:57:57;;;;;;;;;;;;;;;22.31;64.11;101263.41;1037179;28;646;-71
2022/08/20 03:58:47;;;;;;;;;;;;;;;22.32;64.44;101259.69;1037227;28;610;-71
2022/08/20 03:59:37;;;;;;;;;;;;;;;22.31;63.66;101266.13;1037364;28;669;-71
2022/08/20 04:00:28;;;;;;;;;;;;;;;22.31;64.04;101265.28;1037221;28;680;-71
2022/08/20 04:01:18;;;;;;;;;;;;;;;22.30;64.09;101261.72;1037309;28;650;-71
2022/08/20 04:02:09;;;;;;;;;;;;;;;22.29;64.25;101265.44;1037252;28;752;-71
2022/08/20 04:03:00;;;;;;;;;;;;;;;22.31;64.06;101262.56;1038391;28;693;-71
2022/08/20 04:03:50;;;;;;;;;;;;;;;22.31;63.99;101263.41;1037224;28;611;-71
2022/08/20 04:04:41;;;;;;;;;;;;;;;22.29;63.96;101264.59;1037276;28;598;-71
2022/08/20 04:05:33;;;;;;;;;;;;;;;22.30;63.79;101255.44;1036953;28;685;-71
2022/08/20 04:06:23;;;;;;;;;;;;;;;22.31;64.25;101263.41;1037384;28;609;-70
2022/08/20 04:07:14;;;;;;;;;;;;;;;22.32;64.15;101264.28;1038449;28;673;-71
2022/08/20 04:08:04;;;;;;;;;;;;;;;22.31;64.09;101262.56;1037681;28;689;-71
2022/08/20 04:08:55;;;;;;;;;;;;;;;22.27;63.94;101262.03;1038150;28;625;-71
2022/08/20 04:09:46;;;;;;;;;;;;;;;22.27;63.83;101262.03;1037430;28;704;-71
2022/08/20 04:10:36;;;;;;;;;;;;;;;22.27;63.93;101270.19;1049006;23;1987;-66
2022/08/20 04:11:26;;;;;;;;;;;;;;;22.29;63.61;101265.44;1038372;28;654;-66
2022/08/20 04:12:17;;;;;;;;;;;;;;;22.28;63.76;101269.19;1039557;28;1173;-66
2022/08/20 04:13:07;;;;;;;;;;;;;;;22.27;64.28;101266.63;1042056;28;712;-66
2022/08/20 04:13:58;;;;;;;;;;;;;;;22.23;64.39;101266.09;1039898;28;638;-66
2022/08/20 04:14:48;;;;;;;;;;;;;;;22.22;64.21;101272.53;1041028;28;705;-66
2022/08/20 04:15:39;;;;;;;;;;;;;;;22.23;63.93;101274.25;1040971;28;720;-66
2022/08/20 04:16:29;;;;;;;;;;;;;;;22.27;63.84;101272.06;1041981;28;654;-66
2022/08/20 04:17:19;;;;;;;;;;;;;;;22.25;63.75;101276.78;1041980;28;728;-67
2022/08/20 04:18:10;;;;;;;;;;;;;;;22.24;64.31;101267.81;1042050;28;630;-67
2022/08/20 04:19:02;;;;;;;;;;;;;;;22.26;64.22;101271.22;1040727;28;748;-66
2022/08/20 04:19:52;;;;;;;;;;;;;;;22.26;63.57;101273.06;1040022;28;682;-66
2022/08/20 04:20:43;;;;;;;;;;;;;;;22.25;63.91;101269.50;1041647;28;650;-66
2022/08/20 04:21:33;;;;;;;;;;;;;;;22.23;64.08;101268.81;1041005;28;672;-66
2022/08/20 04:22:24;;;;;;;;;;;;;;;22.25;64.15;101274.09;1040934;28;720;-66
2022/08/20 04:23:14;;;;;;;;;;;;;;;22.23;63.84;101271.53;1041896;28;642;-67
2022/08/20 04:24:04;;;;;;;;;;;;;;;22.24;64.17;101265.09;1040072;28;706;-67
2022/08/20 04:24:55;;;;;;;;;;;;;;;22.24;64.08;101277.81;1041025;28;665;-67
2022/08/20 04:25:45;;;;;;;;;;;;;;;22.21;64.14;101265.44;1041904;28;756;-67
2022/08/20 04:26:36;;;;;;;;;;;;;;;22.23;64.02;101274.25;1041986;28;697;-67
2022/08/20 04:27:26;;;;;;;;;;;;;;;22.23;63.76;101268.81;1042021;28;665;-67
2022/08/20 04:28:23;;;;;;;;;;;;;;;22.23;64.12;101271.53;1040128;28;677;-67